Timaru Star — VRAA7 — position and weather

sailwx.info

Track history (hours):
 
Tides and Currents Weather Stations Pressure Air Temp Water Temp Dewpoint Dewpoint Depression Visibility Wind Speed Wind Dir Waves Ship Positions

Timaru Star

Last reported at 2018-Jul-19 12:58 UTC. Time now 2018-Jul-19 13:24 UTC.
Position N 51°53' E 004°26'.

Length 175 m; draft 6.2 m.

Type: Cargo ship. MMSI: 367002208.

Date/timePositionNaut miles runAvg speedWind from/ knotsBaromVisibWave heightAir tempDewpointWater temp
2018-Jul-19 12:58N 51°53' E 004°26'0 0.0
2018-Jul-19 12:28N 51°53' E 004°26'0 0.0
2018-Jul-19 11:58N 51°53' E 004°26'0 0.0
2018-Jul-19 11:28N 51°53' E 004°26'0 0.0
2018-Jul-19 10:58N 51°53' E 004°26'0 0.0
2018-Jul-19 10:28N 51°53' E 004°26'0 0.0
2018-Jul-19 09:58N 51°53' E 004°26'0 0.0
2018-Jul-19 09:28N 51°53' E 004°26'0 0.0
2018-Jul-19 08:58N 51°53' E 004°26'0 0.0
2018-Jul-19 08:28N 51°53' E 004°26'0 0.0
2018-Jul-19 07:58N 51°53' E 004°26'0 0.0
2018-Jul-19 07:28N 51°53' E 004°26'0 0.0
2018-Jul-19 06:58N 51°53' E 004°26'0 0.0
2018-Jul-19 06:28N 51°53' E 004°26'0 0.0
2018-Jul-19 05:58N 51°53' E 004°26'0 0.0
2018-Jul-19 05:28N 51°53' E 004°26'0 0.0
2018-Jul-19 04:58N 51°53' E 004°26'0 0.0
2018-Jul-19 04:28N 51°53' E 004°26'0 0.0
2018-Jul-19 03:58N 51°53' E 004°26'0 0.0
2018-Jul-19 03:28N 51°53' E 004°26'0 0.0
2018-Jul-19 02:58N 51°53' E 004°26'0 0.0
2018-Jul-19 02:28N 51°53' E 004°26'0 0.0
2018-Jul-19 01:58N 51°53' E 004°26'0 0.0
2018-Jul-19 01:28N 51°53' E 004°26'0 0.0
2018-Jul-19 00:58N 51°53' E 004°26'0 0.0
2018-Jul-19 00:25N 51°53' E 004°26'0 0.0
2018-Jul-18 23:58N 51°53' E 004°26'0 0.0
2018-Jul-18 23:28N 51°53' E 004°26'0 0.1
2018-Jul-18 22:58N 51°53' E 004°26'0 0.0
2018-Jul-18 22:28N 51°53' E 004°26'0 0.0
2018-Jul-18 21:58N 51°53' E 004°26'0 0.0
2018-Jul-18 21:28N 51°53' E 004°26'0 0.0
2018-Jul-18 20:58N 51°53' E 004°26'0 0.0
2018-Jul-18 20:28N 51°53' E 004°26'0 0.0
2018-Jul-18 19:58N 51°53' E 004°26'0 0.0
2018-Jul-18 19:28N 51°53' E 004°26'0 0.0
2018-Jul-18 18:58N 51°53' E 004°26'0 0.0
2018-Jul-18 18:28N 51°53' E 004°26'0 0.3
2018-Jul-18 18:00N 51°53' E 004°27'2 4.0
2018-Jul-18 17:31N 51°54' E 004°23'4 7.0
2018-Jul-18 17:01N 51°54' E 004°18'4 8.3
2018-Jul-18 16:30N 51°56' E 004°12'4 8.4
2018-Jul-18 16:01N 51°59' E 004°07'4 8.9
2018-Jul-18 15:31N 51°60' E 003°60'5 9.1
2018-Jul-18 15:00N 51°60' E 003°52'4 8.1
2018-Jul-18 14:30N 51°60' E 003°46'10 9.6
2018-Jul-18 13:30N 51°57' E 003°31'510.7
2018-Jul-18 13:00N 51°55' E 003°23'510.5
2018-Jul-18 12:30N 51°54' E 003°14'510.5
2018-Jul-18 12:00N 51°52' E 003°07'610.5
2018-Jul-18 11:29N 51°50' E 002°58'10 9.8
2018-Jul-18 10:30N 51°47' E 002°43'5 9.3
2018-Jul-18 09:59N 51°45' E 002°36'611.5
2018-Jul-18 09:30N 51°41' E 002°30'611.9
2018-Jul-18 09:00N 51°37' E 002°24'612.8
2018-Jul-18 08:30N 51°32' E 002°17'713.3
2018-Jul-18 08:00N 51°27' E 002°10'713.4
2018-Jul-18 07:30N 51°22' E 002°02'713.6
2018-Jul-18 07:00N 51°17' E 001°55'714.0
2018-Jul-18 06:31N 51°12' E 001°48'714.3
2018-Jul-18 06:01N 51°06' E 001°41'714.8
2018-Jul-18 05:31N 51°00' E 001°34'815.2
2018-Jul-18 05:01N 50°54' E 001°26'815.2
2018-Jul-18 04:30N 50°47' E 001°23'714.2
2018-Jul-18 04:00N 50°40' E 001°19'714.5
2018-Jul-18 03:30N 50°35' E 001°10'714.1
2018-Jul-18 03:00N 50°31' E 001°02'713.6
2018-Jul-18 02:30N 50°28' E 000°53'713.9
2018-Jul-18 02:00N 50°26' E 000°42'714.3
2018-Jul-18 01:30N 50°24' E 000°32'814.7
2018-Jul-18 00:57N 50°21' E 000°19'815.2
2018-Jul-18 00:27N 50°19' E 000°08'715.4
2018-Jul-17 23:59N 50°17' W 000°03'715.4
2018-Jul-17 23:30N 50°15' W 000°14'815.5
2018-Jul-17 22:59N 50°13' W 000°26'1015.3
2018-Jul-17 22:22N 50°11' W 000°40'4812.5
2018-Jul-17 18:34N 49°59' W 001°52'1 9.4
2018-Jul-17 18:29N 49°59' W 001°53'22 8.9
2018-Jul-17 16:04N 49°53' W 002°26'1 9.7
2018-Jul-17 15:59N 49°53' W 002°27'610.4
2018-Jul-17 15:26N 49°51' W 002°35'511.0
2018-Jul-17 14:58N 49°50' W 002°43'611.4
2018-Jul-17 14:26N 49°48' W 002°52'512.0
2018-Jul-17 13:58N 49°45' W 002°60'912.4
2018-Jul-17 13:17N 49°41' W 003°11'8013.4
2018-Jul-17 07:19N 49°01' W 004°57'514.2
2018-Jul-17 06:57N 48°59' W 005°05'614.1
2018-Jul-17 06:30N 48°56' W 005°13'713.7
2018-Jul-17 06:00N 48°54' W 005°23'713.6
2018-Jul-17 05:31N 48°50' W 005°32'  
Track history (hours):
 
Tides and Currents Weather Stations Pressure Air Temp Water Temp Dewpoint Dewpoint Depression Visibility Wind Speed Wind Dir Waves Ship Positions

Timaru Star

Last reported at 2018-Jul-19 12:58 UTC. Time now 2018-Jul-19 13:24 UTC.
Position N 51°53' E 004°26'.

Length 175 m; draft 6.2 m.

Type: Cargo ship. MMSI: 367002208.

Date/timePositionNaut miles runAvg speedWind from/ knotsBaromVisibWave heightAir tempDewpointWater temp
2018-Jul-19 12:58N 51°53' E 004°26'0 0.0
2018-Jul-19 12:28N 51°53' E 004°26'0 0.0
2018-Jul-19 11:58N 51°53' E 004°26'0 0.0
2018-Jul-19 11:28N 51°53' E 004°26'0 0.0
2018-Jul-19 10:58N 51°53' E 004°26'0 0.0
2018-Jul-19 10:28N 51°53' E 004°26'0 0.0
2018-Jul-19 09:58N 51°53' E 004°26'0 0.0
2018-Jul-19 09:28N 51°53' E 004°26'0 0.0
2018-Jul-19 08:58N 51°53' E 004°26'0 0.0
2018-Jul-19 08:28N 51°53' E 004°26'0 0.0
2018-Jul-19 07:58N 51°53' E 004°26'0 0.0
2018-Jul-19 07:28N 51°53' E 004°26'0 0.0
2018-Jul-19 06:58N 51°53' E 004°26'0 0.0
2018-Jul-19 06:28N 51°53' E 004°26'0 0.0
2018-Jul-19 05:58N 51°53' E 004°26'0 0.0
2018-Jul-19 05:28N 51°53' E 004°26'0 0.0
2018-Jul-19 04:58N 51°53' E 004°26'0 0.0
2018-Jul-19 04:28N 51°53' E 004°26'0 0.0
2018-Jul-19 03:58N 51°53' E 004°26'0 0.0
2018-Jul-19 03:28N 51°53' E 004°26'0 0.0
2018-Jul-19 02:58N 51°53' E 004°26'0 0.0
2018-Jul-19 02:28N 51°53' E 004°26'0 0.0
2018-Jul-19 01:58N 51°53' E 004°26'0 0.0
2018-Jul-19 01:28N 51°53' E 004°26'0 0.0
2018-Jul-19 00:58N 51°53' E 004°26'0 0.0
2018-Jul-19 00:25N 51°53' E 004°26'0 0.0
2018-Jul-18 23:58N 51°53' E 004°26'0 0.0
2018-Jul-18 23:28N 51°53' E 004°26'0 0.1
2018-Jul-18 22:58N 51°53' E 004°26'0 0.0
2018-Jul-18 22:28N 51°53' E 004°26'0 0.0
2018-Jul-18 21:58N 51°53' E 004°26'0 0.0
2018-Jul-18 21:28N 51°53' E 004°26'0 0.0
2018-Jul-18 20:58N 51°53' E 004°26'0 0.0
2018-Jul-18 20:28N 51°53' E 004°26'0 0.0
2018-Jul-18 19:58N 51°53' E 004°26'0 0.0
2018-Jul-18 19:28N 51°53' E 004°26'0 0.0
2018-Jul-18 18:58N 51°53' E 004°26'0 0.0
2018-Jul-18 18:28N 51°53' E 004°26'0 0.3
2018-Jul-18 18:00N 51°53' E 004°27'2 4.0
2018-Jul-18 17:31N 51°54' E 004°23'4 7.0
2018-Jul-18 17:01N 51°54' E 004°18'4 8.3
2018-Jul-18 16:30N 51°56' E 004°12'4 8.4
2018-Jul-18 16:01N 51°59' E 004°07'4 8.9
2018-Jul-18 15:31N 51°60' E 003°60'5 9.1
2018-Jul-18 15:00N 51°60' E 003°52'4 8.1
2018-Jul-18 14:30N 51°60' E 003°46'10 9.6
2018-Jul-18 13:30N 51°57' E 003°31'510.7
2018-Jul-18 13:00N 51°55' E 003°23'510.5
2018-Jul-18 12:30N 51°54' E 003°14'510.5
2018-Jul-18 12:00N 51°52' E 003°07'610.5
2018-Jul-18 11:29N 51°50' E 002°58'10 9.8
2018-Jul-18 10:30N 51°47' E 002°43'5 9.3
2018-Jul-18 09:59N 51°45' E 002°36'611.5
2018-Jul-18 09:30N 51°41' E 002°30'611.9
2018-Jul-18 09:00N 51°37' E 002°24'612.8
2018-Jul-18 08:30N 51°32' E 002°17'713.3
2018-Jul-18 08:00N 51°27' E 002°10'713.4
2018-Jul-18 07:30N 51°22' E 002°02'713.6
2018-Jul-18 07:00N 51°17' E 001°55'714.0
2018-Jul-18 06:31N 51°12' E 001°48'714.3
2018-Jul-18 06:01N 51°06' E 001°41'714.8
2018-Jul-18 05:31N 51°00' E 001°34'815.2
2018-Jul-18 05:01N 50°54' E 001°26'815.2
2018-Jul-18 04:30N 50°47' E 001°23'714.2
2018-Jul-18 04:00N 50°40' E 001°19'714.5
2018-Jul-18 03:30N 50°35' E 001°10'714.1
2018-Jul-18 03:00N 50°31' E 001°02'713.6
2018-Jul-18 02:30N 50°28' E 000°53'713.9
2018-Jul-18 02:00N 50°26' E 000°42'714.3
2018-Jul-18 01:30N 50°24' E 000°32'814.7
2018-Jul-18 00:57N 50°21' E 000°19'815.2
2018-Jul-18 00:27N 50°19' E 000°08'715.4
2018-Jul-17 23:59N 50°17' W 000°03'715.4
2018-Jul-17 23:30N 50°15' W 000°14'815.5
2018-Jul-17 22:59N 50°13' W 000°26'1015.3
2018-Jul-17 22:22N 50°11' W 000°40'4812.5
2018-Jul-17 18:34N 49°59' W 001°52'1 9.4
2018-Jul-17 18:29N 49°59' W 001°53'22 8.9
2018-Jul-17 16:04N 49°53' W 002°26'1 9.7
2018-Jul-17 15:59N 49°53' W 002°27'610.4
2018-Jul-17 15:26N 49°51' W 002°35'511.0
2018-Jul-17 14:58N 49°50' W 002°43'611.4
2018-Jul-17 14:26N 49°48' W 002°52'512.0
2018-Jul-17 13:58N 49°45' W 002°60'912.4
2018-Jul-17 13:17N 49°41' W 003°11'8013.4
2018-Jul-17 07:19N 49°01' W 004°57'514.2
2018-Jul-17 06:57N 48°59' W 005°05'614.1
2018-Jul-17 06:30N 48°56' W 005°13'713.7
2018-Jul-17 06:00N 48°54' W 005°23'713.6
2018-Jul-17 05:31N 48°50' W 005°32'  

Dump ship's entire track history